Time;durP1;ratioP1;P1;durP2;ratioP2;P2;SDS_P1;SDS_P2;PMS_P1;PMS_P2;Temp;Humidity;BMP_temperature;BMP_pressure;BME280_temperature;BME280_humidity;BME280_pressure;Samples;Min_cycle;Max_cycle;Signal;HPM_P1;HPM_P2
2021/06/15 00:00:40;;;;;;;5.97;4.00;;;;;;;15.47;79.40;96151.06;4373079;32;20614;-75
2021/06/15 00:03:06;;;;;;;5.82;3.47;;;;;;;15.46;78.81;96157.19;4372621;32;20284;-75
2021/06/15 00:05:31;;;;;;;5.87;3.53;;;;;;;15.36;79.33;96149.25;4372506;32;20223;-75
2021/06/15 00:07:57;;;;;;;7.22;3.20;;;;;;;15.34;78.73;96155.53;4372621;32;20277;-74
2021/06/15 00:10:25;;;;;;;4.65;3.00;;;;;;;15.32;79.00;96147.84;4359319;32;20254;-75
2021/06/15 00:12:52;;;;;;;4.47;2.90;;;;;;;15.33;78.77;96148.66;4372489;32;20226;-75
2021/06/15 00:15:18;;;;;;;5.68;2.75;;;;;;;15.47;78.13;96144.06;4372852;32;20253;-75
2021/06/15 00:17:46;;;;;;;4.65;3.22;;;;;;;15.45;78.17;96145.09;4372683;32;20286;-75
2021/06/15 00:20:13;;;;;;;4.07;3.33;;;;;;;15.49;75.85;96146.53;4372400;32;20623;-75
2021/06/15 00:22:39;;;;;;;4.87;3.12;;;;;;;15.30;78.16;96147.09;4373262;32;20838;-74
2021/06/15 00:25:05;;;;;;;5.07;2.90;;;;;;;15.35;76.98;96154.56;4358953;32;20240;-75
2021/06/15 00:27:31;;;;;;;4.95;3.20;;;;;;;15.22;78.54;96147.69;4372129;32;20314;-74
2021/06/15 00:29:57;;;;;;;5.10;2.50;;;;;;;15.10;78.52;96145.19;4372506;32;20624;-74
2021/06/15 00:32:22;;;;;;;4.60;3.00;;;;;;;15.03;78.88;96142.19;4372549;32;20673;-74
2021/06/15 00:34:49;;;;;;;4.23;2.77;;;;;;;15.07;77.94;96141.00;4372618;32;20265;-74
2021/06/15 00:37:14;;;;;;;5.53;3.10;;;;;;;14.95;78.84;96144.53;4358637;32;20573;-74
2021/06/15 00:39:40;;;;;;;4.47;2.73;;;;;;;14.88;79.45;96141.56;4372689;32;20216;-74
2021/06/15 00:42:06;;;;;;;3.17;2.70;;;;;;;14.85;79.79;96138.34;4372464;32;20284;-74
2021/06/15 00:44:32;;;;;;;4.20;3.10;;;;;;;14.84;80.04;96149.72;4372213;32;20643;-74
2021/06/15 00:46:57;;;;;;;3.63;2.90;;;;;;;14.93;77.79;96142.03;4371953;32;20223;-74
2021/06/15 00:49:25;;;;;;;3.87;2.80;;;;;;;14.79;80.49;96136.16;4372162;32;20870;-74
2021/06/15 00:51:52;;;;;;;3.85;2.58;;;;;;;14.83;78.14;96135.00;4358780;32;20220;-74
2021/06/15 00:54:18;;;;;;;7.75;2.85;;;;;;;14.69;79.08;96130.81;4372635;32;20231;-74
2021/06/15 00:56:43;;;;;;;4.93;3.05;;;;;;;14.66;78.75;96131.88;4372025;32;20273;-74
2021/06/15 00:59:09;;;;;;;5.97;3.30;;;;;;;14.74;78.30;96133.91;4372659;32;20234;-74
2021/06/15 01:01:34;;;;;;;4.93;3.40;;;;;;;14.62;79.66;96133.03;4358761;32;20207;-75
2021/06/15 01:04:00;;;;;;;4.33;3.10;;;;;;;14.54;80.49;96131.94;4372318;32;20229;-74
2021/06/15 01:06:37;;;;;;;4.07;3.17;;;;;;;14.52;81.29;96134.66;4372297;32;20309;-74
2021/06/15 01:09:14;;;;;;;3.95;3.00;;;;;;;14.54;80.92;96127.56;4372264;32;20231;-74
2021/06/15 01:11:50;;;;;;;4.83;3.20;;;;;;;14.56;80.97;96120.44;4372491;32;20214;-74
2021/06/15 01:14:27;;;;;;;4.65;2.90;;;;;;;14.69;80.44;96126.44;4372117;32;20281;-74
2021/06/15 01:16:57;;;;;;;5.62;2.95;;;;;;;14.69;80.18;96126.44;4372069;32;20312;-74
2021/06/15 01:19:36;;;;;;;4.75;3.22;;;;;;;14.65;80.36;96125.00;4358616;32;20269;-74
2021/06/15 01:22:07;;;;;;;4.53;3.33;;;;;;;14.62;80.77;96116.56;4372382;32;20262;-74
2021/06/15 01:24:38;;;;;;;7.28;2.97;;;;;;;14.62;80.97;96121.78;4358373;32;20620;-74
2021/06/15 01:27:41;;;;;;;3.80;2.50;;;;;;;14.63;79.88;96121.66;4358495;32;20298;-75
2021/06/15 01:30:09;;;;;;;2.92;2.60;;;;;;;14.47;80.35;96111.50;4358261;32;20232;-74
2021/06/15 01:32:36;;;;;;;5.78;2.60;;;;;;;14.44;80.75;96119.53;4375156;32;20273;-74
2021/06/15 01:35:05;;;;;;;5.47;2.80;;;;;;;14.42;81.00;96110.97;4374724;32;20235;-74
2021/06/15 01:37:34;;;;;;;5.28;2.95;;;;;;;14.48;80.23;96112.31;4360966;32;20228;-74
2021/06/15 01:40:04;;;;;;;3.85;2.87;;;;;;;14.56;79.77;96114.41;4374875;32;20223;-75
2021/06/15 01:42:33;;;;;;;4.55;2.85;;;;;;;14.45;80.38;96108.16;4374938;32;20598;-74
2021/06/15 01:45:04;;;;;;;3.72;2.50;;;;;;;14.48;79.73;96109.72;4361009;32;20631;-75
2021/06/15 01:47:30;;;;;;;5.68;3.25;;;;;;;14.32;79.32;96111.78;4360839;32;20291;-74
2021/06/15 01:50:02;;;;;;;3.83;3.00;;;;;;;14.19;80.25;96111.81;4360956;32;20254;-74
2021/06/15 01:52:31;;;;;;;5.37;3.40;;;;;;;14.09;82.18;96111.66;4374756;32;20231;-74
2021/06/15 01:54:58;;;;;;;4.70;3.10;;;;;;;14.06;83.04;96106.66;4374900;32;20219;-74
2021/06/15 01:57:25;;;;;;;4.22;3.03;;;;;;;14.06;82.77;96111.06;4374641;32;20334;-74
2021/06/15 01:59:55;;;;;;;4.10;3.12;;;;;;;14.04;83.07;96116.34;4374627;32;20240;-74
2021/06/15 02:02:21;;;;;;;3.78;2.97;;;;;;;14.07;83.36;96108.31;4374707;32;20219;-74
2021/06/15 02:04:50;;;;;;;3.90;2.80;;;;;;;14.06;83.60;96109.28;4375083;32;20650;-74
2021/06/15 02:07:20;;;;;;;4.13;3.07;;;;;;;14.05;81.83;96107.59;4374473;32;20298;-74
2021/06/15 02:09:50;;;;;;;4.10;2.85;;;;;;;14.03;82.74;96112.09;4374210;32;20360;-74
2021/06/15 02:12:19;;;;;;;4.47;3.20;;;;;;;14.03;82.76;96106.87;4374873;32;20695;-74
2021/06/15 02:14:45;;;;;;;5.35;2.53;;;;;;;13.95;81.20;96104.00;4360477;32;20677;-74
2021/06/15 02:17:13;;;;;;;4.07;2.70;;;;;;;13.75;81.56;96102.78;4374456;32;20220;-74
2021/06/15 02:19:42;;;;;;;4.22;2.85;;;;;;;13.67;82.47;96097.28;4361279;32;20227;-74
2021/06/15 02:22:12;;;;;;;3.10;2.65;;;;;;;13.74;82.80;96098.53;4375111;32;20295;-74
2021/06/15 02:24:42;;;;;;;5.50;2.83;;;;;;;13.77;82.17;96101.75;4374640;32;20261;-74
2021/06/15 02:27:10;;;;;;;3.53;2.83;;;;;;;14.06;79.23;96095.44;4360355;32;20219;-74
2021/06/15 02:29:38;;;;;;;7.18;2.72;;;;;;;13.86;79.82;96094.22;4374335;32;20289;-74
2021/06/15 02:32:07;;;;;;;4.68;3.00;;;;;;;13.66;80.43;96093.84;4374259;32;20555;-74
2021/06/15 02:34:36;;;;;;;3.87;2.95;;;;;;;13.46;80.56;96091.78;4360832;32;20577;-74
2021/06/15 02:37:05;;;;;;;4.60;2.90;;;;;;;13.31;81.93;96094.53;4373733;32;20226;-75
2021/06/15 02:39:33;;;;;;;4.43;3.40;;;;;;;13.23;83.08;96093.34;4373906;32;20306;-75
2021/06/15 02:42:00;;;;;;;4.50;3.30;;;;;;;13.25;84.75;96092.34;4359520;32;20261;-74
2021/06/15 02:44:31;;;;;;;5.45;3.28;;;;;;;13.42;83.41;96095.53;4373977;32;20448;-75
2021/06/15 02:46:58;;;;;;;5.10;3.72;;;;;;;13.55;83.17;96091.16;4373877;32;20262;-74
2021/06/15 02:49:29;;;;;;;4.72;3.35;;;;;;;13.45;84.01;96092.72;4360459;32;20227;-75
2021/06/15 02:52:02;;;;;;;4.20;3.30;;;;;;;13.29;85.82;96086.00;4373837;32;20635;-74
2021/06/15 02:54:35;;;;;;;7.32;3.50;;;;;;;13.31;86.54;96089.34;4374173;32;20630;-74
2021/06/15 02:57:02;;;;;;;5.57;3.50;;;;;;;13.34;86.49;96090.03;4373672;32;20242;-74
2021/06/15 02:59:28;;;;;;;4.53;3.50;;;;;;;13.38;86.33;96088.88;4373936;32;20227;-74
2021/06/15 03:01:54;;;;;;;5.80;3.60;;;;;;;13.42;86.75;96086.00;4373790;32;20250;-74
2021/06/15 03:04:21;;;;;;;5.35;3.17;;;;;;;13.40;87.10;96090.47;4373605;32;20575;-74
2021/06/15 03:06:47;;;;;;;4.60;3.10;;;;;;;13.51;86.10;96095.75;4373626;32;20285;-74
2021/06/15 03:09:13;;;;;;;7.30;3.28;;;;;;;13.58;84.87;96093.56;4359863;32;20231;-74
2021/06/15 03:11:44;;;;;;;3.42;3.08;;;;;;;13.60;84.74;96096.03;4373333;32;20341;-74
2021/06/15 03:14:13;;;;;;;6.25;3.55;;;;;;;13.61;84.91;96100.31;4373574;32;20750;-74
2021/06/15 03:16:39;;;;;;;5.28;3.15;;;;;;;13.64;84.08;96090.50;4373638;32;20238;-74
2021/06/15 03:19:08;;;;;;;4.75;3.22;;;;;;;13.65;84.42;96102.59;4359801;32;20231;-74
2021/06/15 03:21:39;;;;;;;4.65;3.15;;;;;;;13.59;84.25;96100.41;4373483;32;20219;-74
2021/06/15 03:24:07;;;;;;;5.65;3.60;;;;;;;13.52;84.60;96099.19;4373413;32;20269;-74
2021/06/15 03:26:38;;;;;;;5.50;3.60;;;;;;;13.51;84.72;96100.13;4373545;32;20220;-74
2021/06/15 03:29:09;;;;;;;5.35;3.30;;;;;;;13.53;85.20;96098.22;4359566;32;20634;-74
2021/06/15 03:31:39;;;;;;;3.50;2.50;;;;;;;13.59;84.07;96092.63;4359555;32;20245;-74
2021/06/15 03:34:08;;;;;;;3.60;2.70;;;;;;;13.58;81.96;96088.34;4359401;32;20249;-74
2021/06/15 03:36:37;;;;;;;5.35;2.90;;;;;;;13.43;81.71;96087.66;4373220;32;20244;-74
2021/06/15 03:39:02;;;;;;;2.77;2.43;;;;;;;13.34;80.79;96088.28;4359647;32;20639;-74
2021/06/15 03:41:29;;;;;;;4.83;2.87;;;;;;;13.26;81.27;96086.19;4373358;32;20223;-74
2021/06/15 03:43:57;;;;;;;4.65;2.45;;;;;;;13.34;79.84;96092.63;4359368;32;20238;-74
2021/06/15 03:46:25;;;;;;;5.07;2.70;;;;;;;13.26;79.69;96098.37;4372848;32;20243;-74
2021/06/15 03:48:52;;;;;;;4.03;2.55;;;;;;;13.10;80.18;96089.94;4373166;32;20234;-74
2021/06/15 03:51:22;;;;;;;7.10;3.22;;;;;;;12.89;82.33;96100.00;4372710;32;20245;-74
2021/06/15 03:53:48;;;;;;;10.40;3.00;;;;;;;12.85;83.52;96096.75;4372553;32;20628;-74
2021/06/15 03:56:14;;;;;;;6.10;3.50;;;;;;;12.90;83.39;96099.03;4359021;32;20223;-74
2021/06/15 03:58:40;;;;;;;3.65;3.00;;;;;;;13.00;82.84;96097.50;4372730;32;20222;-74
2021/06/15 04:01:12;;;;;;;3.50;2.97;;;;;;;13.10;82.44;96101.16;4372609;32;20270;-74
2021/06/15 04:03:40;;;;;;;3.55;3.12;;;;;;;13.03;83.17;96102.50;4359262;32;20223;-74
2021/06/15 04:06:08;;;;;;;4.28;3.25;;;;;;;12.92;84.71;96100.63;4372774;32;20291;-74
2021/06/15 04:08:35;;;;;;;7.12;3.58;;;;;;;12.82;86.05;96097.78;4372578;32;20306;-74
2021/06/15 04:11:02;;;;;;;4.82;3.40;;;;;;;12.87;86.05;96107.03;4373276;32;20298;-74
2021/06/15 04:13:30;;;;;;;5.60;3.35;;;;;;;12.95;84.85;96102.19;4373155;32;20231;-74
2021/06/15 04:15:56;;;;;;;4.72;3.50;;;;;;;12.81;87.43;96105.69;4372686;32;20254;-74
2021/06/15 04:18:25;;;;;;;8.25;3.03;;;;;;;12.93;86.91;96097.06;4372380;32;20290;-75
2021/06/15 04:20:55;;;;;;;4.53;3.22;;;;;;;13.05;86.99;96103.22;4359092;32;20231;-74
2021/06/15 04:23:27;;;;;;;6.45;3.58;;;;;;;13.01;87.48;96102.59;4373087;32;20223;-75
2021/06/15 04:25:53;;;;;;;6.28;4.25;;;;;;;13.01;88.07;96106.97;4358451;32;20223;-75
2021/06/15 04:28:20;;;;;;;5.50;4.22;;;;;;;13.07;87.98;96096.97;4372712;32;20219;-75
2021/06/15 04:30:45;;;;;;;5.32;3.62;;;;;;;13.18;88.66;96098.03;4372853;32;20219;-75
2021/06/15 04:33:14;;;;;;;5.83;4.20;;;;;;;13.34;88.33;96097.84;4358876;32;20226;-75
2021/06/15 04:35:42;;;;;;;7.20;4.50;;;;;;;13.50;87.55;96106.28;4365544;32;20275;-75
2021/06/15 04:38:12;;;;;;;5.68;4.00;;;;;;;13.62;87.15;96108.03;4367981;32;20281;-75
2021/06/15 04:40:41;;;;;;;5.53;3.92;;;;;;;13.76;86.87;96107.91;4372044;32;20215;-75
2021/06/15 04:43:15;;;;;;;6.93;4.18;;;;;;;13.90;86.76;96106.06;4372536;32;20270;-74
2021/06/15 04:45:43;;;;;;;6.95;4.00;;;;;;;13.95;87.09;96114.41;4372565;32;20253;-74
2021/06/15 04:48:11;;;;;;;4.40;3.55;;;;;;;14.09;86.77;96113.41;4372029;32;20241;-74
2021/06/15 04:50:37;;;;;;;5.18;3.58;;;;;;;14.23;86.13;96113.25;4372378;32;20356;-74
2021/06/15 04:53:05;;;;;;;5.03;3.55;;;;;;;14.29;83.79;96113.66;4358574;32;20243;-74
2021/06/15 04:55:35;;;;;;;7.85;3.72;;;;;;;14.41;83.77;96109.31;4358320;32;20261;-74
2021/06/15 04:58:03;;;;;;;6.15;3.80;;;;;;;14.61;83.36;96112.28;4371829;32;20216;-76
2021/06/15 05:00:29;;;;;;;5.50;3.92;;;;;;;14.81;82.33;96116.88;4372467;32;20261;-76
2021/06/15 05:02:56;;;;;;;5.03;3.40;;;;;;;14.77;81.46;96118.88;4370825;32;20231;-76
2021/06/15 05:05:22;;;;;;;6.72;3.62;;;;;;;14.76;81.14;96122.44;4371904;32;20219;-76
2021/06/15 05:07:53;;;;;;;6.07;3.85;;;;;;;14.84;80.91;96113.22;4375316;32;20253;-76
2021/06/15 05:10:21;;;;;;;6.30;3.55;;;;;;;14.72;81.66;96118.41;4375317;32;20232;-76
2021/06/15 05:12:51;;;;;;;8.43;3.60;;;;;;;14.97;81.05;96120.00;4375115;32;20362;-76
2021/06/15 05:15:20;;;;;;;6.78;3.72;;;;;;;15.03;81.14;96113.50;4374654;32;20250;-76
2021/06/15 05:17:47;;;;;;;8.57;4.10;;;;;;;15.13;80.78;96119.69;4375125;32;20224;-76
2021/06/15 05:20:13;;;;;;;5.95;3.75;;;;;;;15.30;80.24;96118.41;4375218;32;20227;-76
2021/06/15 05:22:43;;;;;;;7.78;3.75;;;;;;;15.45;79.44;96117.22;4375889;32;20284;-76
2021/06/15 05:25:10;;;;;;;6.37;3.95;;;;;;;15.45;79.13;96124.22;4375943;32;20223;-76
2021/06/15 05:27:35;;;;;;;6.70;4.00;;;;;;;15.54;78.59;96127.94;4361688;32;20244;-76
2021/06/15 05:30:05;;;;;;;5.93;3.95;;;;;;;15.50;78.69;96127.34;4375257;32;20296;-76
2021/06/15 05:32:31;;;;;;;4.37;3.47;;;;;;;15.72;77.52;96129.13;4361179;32;20223;-76
2021/06/15 05:34:56;;;;;;;6.07;3.62;;;;;;;15.92;78.08;96127.59;4361278;32;20266;-75
2021/06/15 05:37:23;;;;;;;7.95;3.90;;;;;;;16.14;76.92;96121.50;4374441;32;20216;-74
2021/06/15 05:39:49;;;;;;;11.45;4.15;;;;;;;16.12;75.60;96124.22;4375324;32;20216;-74
2021/06/15 05:42:14;;;;;;;6.30;3.70;;;;;;;15.93;76.93;96127.47;4374958;32;20258;-69
2021/06/15 05:44:41;;;;;;;7.30;3.80;;;;;;;16.03;76.88;96130.19;4375147;32;20220;-74
2021/06/15 05:47:08;;;;;;;6.97;4.33;;;;;;;16.06;76.70;96126.50;4374582;32;20697;-74
2021/06/15 05:49:34;;;;;;;4.70;3.83;;;;;;;16.16;76.56;96125.62;4374664;32;20223;-76
2021/06/15 05:52:02;;;;;;;8.35;4.35;;;;;;;16.25;76.48;96131.09;4375195;32;20735;-76
2021/06/15 05:54:28;;;;;;;7.65;4.37;;;;;;;16.35;75.85;96129.41;4374522;32;20235;-76
2021/06/15 05:56:54;;;;;;;7.00;4.03;;;;;;;16.44;74.81;96121.66;4374140;32;20325;-75
2021/06/15 05:59:19;;;;;;;5.53;4.12;;;;;;;16.70;74.27;96122.16;4361682;32;20669;-77
2021/06/15 06:01:45;;;;;;;8.50;4.40;;;;;;;16.98;73.42;96121.69;4374777;32;20219;-77
2021/06/15 06:04:13;;;;;;;7.70;3.77;;;;;;;17.01;73.16;96121.44;4374538;32;20249;-74
2021/06/15 06:09:23;;;;;;;6.05;3.30;;;;;;;16.99;72.78;96113.75;4359716;33;20243;-74
2021/06/15 06:11:49;;;;;;;9.25;3.75;;;;;;;17.06;72.98;96122.75;4359678;33;20221;-74
2021/06/15 06:14:16;;;;;;;6.67;3.70;;;;;;;17.14;72.50;96122.94;4359481;32;20287;-75
2021/06/15 06:16:42;;;;;;;5.32;3.60;;;;;;;17.22;72.50;96124.06;4357915;32;20276;-75
2021/06/15 06:19:09;;;;;;;7.07;3.60;;;;;;;17.35;72.63;96130.78;4359598;33;20585;-75
2021/06/15 06:21:37;;;;;;;6.03;3.60;;;;;;;17.66;71.33;96128.16;4358082;33;20258;-75
2021/06/15 06:24:05;;;;;;;9.40;3.60;;;;;;;17.93;70.80;96132.84;4359431;33;20251;-75
2021/06/15 06:26:30;;;;;;;7.00;3.35;;;;;;;18.40;69.87;96130.50;4357932;32;20754;-76
2021/06/15 06:28:56;;;;;;;6.67;3.43;;;;;;;18.78;67.65;96132.34;4359450;33;20257;-76
2021/06/15 06:31:22;;;;;;;7.03;3.47;;;;;;;19.16;67.54;96129.84;4359188;33;20674;-75
2021/06/15 06:33:48;;;;;;;5.37;3.45;;;;;;;19.47;65.06;96127.88;4358968;32;20286;-76
2021/06/15 06:36:14;;;;;;;5.32;3.47;;;;;;;19.69;63.52;96127.53;4370146;32;20218;-76
2021/06/15 06:38:42;;;;;;;4.75;3.22;;;;;;;19.61;64.29;96127.38;4374046;32;20214;-76
2021/06/15 06:41:07;;;;;;;9.02;3.95;;;;;;;19.72;63.04;96127.22;4360186;32;20230;-76
2021/06/15 06:43:33;;;;;;;7.05;3.37;;;;;;;19.62;63.92;96117.72;4373891;32;20280;-76
2021/06/15 06:45:58;;;;;;;5.40;3.47;;;;;;;19.50;64.39;96124.94;4373985;32;20242;-76
2021/06/15 06:48:24;;;;;;;6.37;3.87;;;;;;;19.68;64.02;96125.88;4373754;32;20211;-76
2021/06/15 06:50:50;;;;;;;8.10;3.62;;;;;;;19.92;63.19;96130.63;4360591;32;20223;-76
2021/06/15 06:53:15;;;;;;;4.37;3.20;;;;;;;20.28;63.92;96128.09;4360497;32;20223;-76
2021/06/15 06:55:42;;;;;;;12.00;3.65;;;;;;;20.41;61.25;96125.12;4373692;32;20227;-75
2021/06/15 06:58:08;;;;;;;6.43;3.53;;;;;;;20.51;61.69;96126.75;4359864;32;20690;-75
2021/06/15 07:00:33;;;;;;;9.57;3.33;;;;;;;20.61;61.39;96121.37;4373560;32;20253;-76
2021/06/15 07:02:59;;;;;;;5.23;3.27;;;;;;;20.80;60.97;96125.69;4373508;32;20927;-77
2021/06/15 07:05:25;;;;;;;5.87;3.23;;;;;;;20.93;60.30;96120.87;4373121;32;20269;-76
2021/06/15 07:07:52;;;;;;;5.35;3.28;;;;;;;21.33;60.25;96132.75;4374038;32;20287;-76
2021/06/15 07:10:17;;;;;;;6.03;3.00;;;;;;;21.77;57.87;96124.78;4373527;32;20531;-76
2021/06/15 07:12:44;;;;;;;5.75;2.72;;;;;;;22.20;56.42;96129.09;4373802;32;20242;-76
2021/06/15 07:15:11;;;;;;;8.82;3.50;;;;;;;22.55;55.13;96126.41;4373271;32;20262;-75
2021/06/15 07:17:36;;;;;;;4.23;3.00;;;;;;;22.31;54.52;96124.53;4373551;32;20607;-76
2021/06/15 07:20:02;;;;;;;6.27;3.10;;;;;;;22.71;57.06;96121.97;4373949;32;20269;-76
2021/06/15 07:22:27;;;;;;;4.35;3.00;;;;;;;23.11;53.96;96120.38;4360210;32;20269;-76
2021/06/15 07:24:53;;;;;;;6.13;3.10;;;;;;;23.09;52.67;96113.63;4373502;32;20215;-75
2021/06/15 07:27:18;;;;;;;5.43;2.93;;;;;;;23.15;53.55;96121.72;4373193;32;20215;-76
2021/06/15 07:29:45;;;;;;;7.53;3.20;;;;;;;23.02;52.31;96113.44;4372956;32;20235;-76
2021/06/15 07:32:10;;;;;;;5.28;2.78;;;;;;;23.27;50.55;96108.97;4373632;32;20231;-76
2021/06/15 07:34:36;;;;;;;4.53;2.70;;;;;;;23.03;49.46;96128.31;4373554;32;20266;-76
2021/06/15 07:37:02;;;;;;;4.10;2.73;;;;;;;23.46;52.54;96117.56;4359240;32;20294;-76
2021/06/15 07:39:27;;;;;;;6.90;2.90;;;;;;;23.90;50.91;96118.78;4373436;32;20227;-76
2021/06/15 07:41:52;;;;;;;4.87;2.70;;;;;;;24.11;51.66;96120.87;4373665;32;20253;-77
2021/06/15 07:44:18;;;;;;;6.20;2.70;;;;;;;24.58;53.70;96120.00;4373268;32;20338;-76
2021/06/15 07:46:44;;;;;;;4.13;2.70;;;;;;;24.97;51.46;96115.59;4372555;32;20282;-76
2021/06/15 07:49:10;;;;;;;4.45;3.00;;;;;;;25.16;49.56;96114.31;4373371;32;20219;-75
2021/06/15 07:51:36;;;;;;;5.57;2.53;;;;;;;25.26;50.44;96120.22;4359022;32;20297;-74
2021/06/15 07:54:02;;;;;;;4.43;2.62;;;;;;;24.99;42.15;96118.88;4373046;32;20227;-75
2021/06/15 07:56:27;;;;;;;4.50;2.47;;;;;;;24.86;43.05;96117.66;4372759;32;20219;-74
2021/06/15 07:58:53;;;;;;;5.57;2.20;;;;;;;25.07;43.81;96110.91;4373069;32;20587;-74
2021/06/15 08:01:18;;;;;;;4.13;2.10;;;;;;;24.62;43.29;96112.50;4372543;32;20211;-74
2021/06/15 08:03:45;;;;;;;5.23;2.50;;;;;;;25.01;42.32;96117.72;4373233;32;20214;-75
2021/06/15 08:06:11;;;;;;;7.18;2.62;;;;;;;25.23;43.09;96113.44;4361084;32;20228;-75
2021/06/15 08:08:36;;;;;;;7.03;2.58;;;;;;;25.27;43.67;96117.38;4357861;32;20366;-75
2021/06/15 08:11:03;;;;;;;11.23;2.30;;;;;;;25.08;44.01;96120.50;4344266;33;20217;-74
2021/06/15 08:13:28;;;;;;;7.85;2.80;;;;;;;25.05;43.42;96115.53;4357609;33;20259;-75
2021/06/15 08:15:53;;;;;;;3.73;2.60;;;;;;;25.10;44.53;96111.41;4357938;32;20221;-75
2021/06/15 08:18:19;;;;;;;3.70;2.45;;;;;;;25.05;43.89;96119.00;4357807;32;20324;-74
2021/06/15 08:20:49;;;;;;;5.00;2.73;;;;;;;25.46;44.14;96110.72;4344627;33;20272;-76
2021/06/15 08:23:14;;;;;;;4.50;2.58;;;;;;;25.62;44.09;96112.38;4357489;33;20535;-75
2021/06/15 08:25:40;;;;;;;4.05;2.60;;;;;;;26.14;46.47;96114.19;4375665;27;20318;-73
2021/06/15 08:28:06;;;;;;;5.10;2.40;;;;;;;26.66;45.72;96113.19;4372338;32;20649;-73
2021/06/15 08:30:31;;;;;;;5.37;2.60;;;;;;;26.83;44.74;96123.56;4372682;32;20369;-75
2021/06/15 08:32:58;;;;;;;8.40;2.70;;;;;;;27.29;45.59;96121.34;4373045;32;20214;-74
2021/06/15 08:35:23;;;;;;;4.60;2.37;;;;;;;27.57;44.64;96115.22;4352493;33;20686;-73
2021/06/15 08:37:50;;;;;;;6.78;2.50;;;;;;;27.37;41.90;96112.44;4358311;32;20217;-74
2021/06/15 08:40:16;;;;;;;4.00;2.60;;;;;;;27.09;44.63;96118.50;4357241;32;20744;-74
2021/06/15 08:42:42;;;;;;;5.73;2.67;;;;;;;26.95;41.68;96120.19;4344168;33;20225;-73
2021/06/15 08:45:11;;;;;;;4.05;2.28;;;;;;;27.03;39.49;96120.09;4357705;33;20288;-73
2021/06/15 08:47:37;;;;;;;3.77;2.57;;;;;;;26.89;39.52;96125.47;4357699;33;20263;-73
2021/06/15 08:50:03;;;;;;;4.50;2.20;;;;;;;27.09;40.07;96125.66;4357603;33;20316;-73
2021/06/15 08:52:29;;;;;;;4.05;2.58;;;;;;;27.16;41.17;96127.38;4358247;33;20241;-73
2021/06/15 08:54:56;;;;;;;3.97;2.47;;;;;;;27.02;40.00;96121.09;4357961;33;20383;-74
2021/06/15 08:57:23;;;;;;;6.43;2.60;;;;;;;27.49;44.04;96127.66;4357610;33;20279;-73
2021/06/15 08:59:49;;;;;;;5.57;2.47;;;;;;;27.64;42.38;96119.59;4357964;33;20255;-73
2021/06/15 09:02:14;;;;;;;6.85;2.25;;;;;;;27.60;39.40;96128.97;4357594;33;20225;-73
2021/06/15 09:04:40;;;;;;;6.13;2.57;;;;;;;27.29;38.25;96121.34;4348217;33;20254;-74
2021/06/15 09:07:06;;;;;;;4.05;2.30;;;;;;;27.39;40.88;96126.34;4357279;33;20544;-74
2021/06/15 09:09:39;;;;;;;7.40;2.57;;;;;;;26.95;44.05;96128.16;4357625;33;20251;-75
2021/06/15 09:12:09;;;;;;;4.93;2.27;;;;;;;27.13;42.66;96121.63;4336077;33;20365;-74
2021/06/15 09:14:40;;;;;;;4.80;2.30;;;;;;;27.06;42.36;96126.84;4343228;33;20230;-77
2021/06/15 09:17:09;;;;;;;4.72;2.42;;;;;;;27.30;42.57;96120.34;4341085;33;20253;-75
2021/06/15 09:19:37;;;;;;;4.73;2.50;;;;;;;27.28;41.00;96127.69;4342469;33;20385;-76
2021/06/15 09:22:03;;;;;;;5.90;2.70;;;;;;;27.19;40.34;96131.50;4338382;33;20896;-75
2021/06/15 09:24:29;;;;;;;7.03;2.78;;;;;;;27.32;40.86;96128.94;4333498;33;20227;-75
2021/06/15 09:26:57;;;;;;;7.33;2.63;;;;;;;27.08;42.98;96137.31;4329870;33;20363;-76
2021/06/15 09:29:40;;;;;;;3.83;2.45;;;;;;;27.13;40.10;96142.91;4334587;33;20265;-75
2021/06/15 09:32:08;;;;;;;4.22;2.30;;;;;;;26.81;39.81;96139.72;4338499;33;20238;-75
2021/06/15 09:34:33;;;;;;;4.75;2.40;;;;;;;27.37;41.38;96136.37;4341667;33;20261;-77
2021/06/15 09:37:02;;;;;;;4.87;2.05;;;;;;;27.48;41.13;96147.31;4342193;33;20657;-77
2021/06/15 09:39:29;;;;;;;4.28;2.60;;;;;;;27.58;41.25;96136.31;4342210;33;20234;-76
2021/06/15 09:41:54;;;;;;;5.72;2.95;;;;;;;27.47;40.16;96142.97;4342593;33;20266;-76
2021/06/15 09:44:22;;;;;;;6.43;2.43;;;;;;;27.65;43.26;96155.81;4343166;33;20262;-75
2021/06/15 09:46:51;;;;;;;11.30;3.03;;;;;;;27.50;39.60;96144.44;4342298;33;20294;-75
2021/06/15 09:49:27;;;;;;;4.25;2.30;;;;;;;27.32;41.27;96144.91;4341702;33;20250;-74
2021/06/15 09:52:08;;;;;;;4.47;2.60;;;;;;;27.44;42.02;96148.72;4342051;33;20638;-73
2021/06/15 09:54:38;;;;;;;7.10;2.60;;;;;;;27.45;45.03;96150.34;4345199;33;20226;-73
2021/06/15 09:57:04;;;;;;;4.70;2.42;;;;;;;27.40;38.92;96149.25;4343990;33;20223;-73
2021/06/15 09:59:30;;;;;;;5.57;2.67;;;;;;;27.16;39.22;96153.16;4343460;33;20254;-75
2021/06/15 10:01:57;;;;;;;6.62;2.62;;;;;;;27.50;39.37;96144.44;4344101;33;20266;-75
2021/06/15 10:04:24;;;;;;;6.68;2.33;;;;;;;27.38;40.79;96151.31;4345586;33;20638;-76
2021/06/15 10:06:51;;;;;;;4.03;2.35;;;;;;;27.48;38.83;96147.31;4344464;33;20571;-74
2021/06/15 10:09:25;;;;;;;3.30;2.20;;;;;;;27.39;38.01;96148.44;4343635;33;20250;-75
2021/06/15 10:11:52;;;;;;;7.47;2.28;;;;;;;27.45;35.93;96146.88;4343683;33;20337;-75
2021/06/15 10:14:17;;;;;;;4.95;2.30;;;;;;;27.55;36.89;96147.38;4344656;33;20254;-75
2021/06/15 10:16:43;;;;;;;4.97;2.40;;;;;;;27.60;38.21;96157.41;4344514;33;20536;-75
2021/06/15 10:19:11;;;;;;;5.77;2.50;;;;;;;27.67;38.70;96150.31;4345180;33;20303;-75
2021/06/15 10:21:36;;;;;;;6.10;2.62;;;;;;;27.76;38.01;96143.03;4345172;33;20260;-75
2021/06/15 10:24:03;;;;;;;4.27;2.40;;;;;;;27.98;40.56;96139.28;4345041;33;20231;-75
2021/06/15 10:26:30;;;;;;;4.85;2.42;;;;;;;27.93;41.13;96153.19;4342872;33;20289;-75
2021/06/15 10:28:56;;;;;;;5.40;2.72;;;;;;;27.74;35.31;96151.19;4344964;33;20269;-75
2021/06/15 10:31:28;;;;;;;6.80;2.47;;;;;;;27.43;35.64;96139.06;4343111;33;20231;-75
2021/06/15 10:33:53;;;;;;;5.22;2.65;;;;;;;27.67;39.85;96137.00;4344976;33;20610;-75
2021/06/15 10:36:35;;;;;;;5.83;2.60;;;;;;;27.51;39.51;96138.09;4340062;33;20271;-75
2021/06/15 10:39:01;;;;;;;5.03;2.50;;;;;;;27.80;39.39;96141.63;4330139;33;20256;-75
2021/06/15 10:41:26;;;;;;;5.07;2.70;;;;;;;27.73;36.87;96142.34;4330387;33;20658;-73
2021/06/15 10:43:53;;;;;;;3.67;2.40;;;;;;;27.24;36.65;96145.03;4328709;33;20259;-73
2021/06/15 10:46:41;;;;;;;5.97;3.03;;;;;;;27.47;39.14;96140.31;4328205;33;20311;-73
2021/06/15 10:49:12;;;;;;;6.62;2.47;;;;;;;27.77;41.10;96137.50;4329853;33;20233;-72
2021/06/15 10:51:53;;;;;;;4.00;2.35;;;;;;;27.75;37.88;96136.87;4329730;33;20609;-71
2021/06/15 10:54:35;;;;;;;4.68;2.62;;;;;;;27.74;40.69;96138.72;4329612;33;20525;-72
2021/06/15 10:57:24;;;;;;;9.67;2.60;;;;;;;27.61;39.15;96143.91;4328516;33;20228;-73
2021/06/15 11:00:07;;;;;;;4.43;2.33;;;;;;;27.73;38.30;96129.03;4326608;33;20274;-71
2021/06/15 11:02:33;;;;;;;3.92;2.40;;;;;;;27.81;38.82;96125.47;4328797;33;20255;-71
2021/06/15 11:04:59;;;;;;;6.00;2.58;;;;;;;27.93;38.06;96136.37;4332078;33;20242;-73
2021/06/15 11:07:34;;;;;;;6.97;2.90;;;;;;;27.87;40.51;96129.16;4343624;33;20284;-72
2021/06/15 11:09:59;;;;;;;7.45;3.00;;;;;;;27.90;39.59;96134.13;4344052;33;20254;-71
2021/06/15 11:12:25;;;;;;;4.67;2.67;;;;;;;26.79;37.47;96136.41;4343833;33;20284;-72
2021/06/15 11:15:20;;;;;;;9.93;2.70;;;;;;;26.78;39.83;96145.41;4344032;33;20517;-73
2021/06/15 11:17:49;;;;;;;3.72;2.40;;;;;;;26.44;37.85;96135.34;4343198;33;20296;-74
2021/06/15 11:20:29;;;;;;;6.00;2.90;;;;;;;27.07;39.83;96141.81;4342696;33;20697;-74
2021/06/15 11:23:25;;;;;;;6.80;3.42;;;;;;;26.68;37.40;96140.38;4343797;33;20231;-74
2021/06/15 11:25:52;;;;;;;4.15;2.60;;;;;;;26.42;38.57;96132.88;4343307;33;20246;-75
2021/06/15 11:28:56;;;;;;;4.50;2.58;;;;;;;26.63;37.42;96131.34;4343418;33;20222;-74
2021/06/15 11:31:32;;;;;;;8.60;2.75;;;;;;;27.41;40.35;96127.81;4312286;33;20256;-73
2021/06/15 11:34:15;;;;;;;5.50;2.72;;;;;;;27.86;41.99;96128.34;4339989;33;20568;-75
2021/06/15 11:36:43;;;;;;;5.97;2.43;;;;;;;27.82;39.31;96123.63;4356716;33;20315;-74
2021/06/15 11:39:33;;;;;;;6.28;2.50;;;;;;;27.45;38.70;96128.25;4358034;33;20338;-74
2021/06/15 11:42:21;;;;;;;4.12;2.40;;;;;;;27.89;39.36;96129.81;4358532;33;20232;-74